Time;durP1;ratioP1;P1;durP2;ratioP2;P2;SDS_P1;SDS_P2;PMS_P1;PMS_P2;Temp;Humidity;BMP_temperature;BMP_pressure;BME280_temperature;BME280_humidity;BME280_pressure;Samples;Min_cycle;Max_cycle;Signal;HPM_P1;HPM_P2
2023/08/10 00:00:45;;;;;;;20.38;5.50;;;;;;;;;;5052587;28;20025;-40
2023/08/10 00:03:12;;;;;;;26.55;6.15;;;;;;;;;;5069685;28;20032;-38
2023/08/10 00:05:39;;;;;;;24.02;5.78;;;;;;;;;;5066034;28;20035;-38
2023/08/10 00:08:06;;;;;;;32.25;6.70;;;;;;;;;;5072452;28;20411;-39
2023/08/10 00:10:33;;;;;;;25.55;6.60;;;;;;;;;;5059398;28;20039;-39
2023/08/10 00:13:00;;;;;;;22.45;5.60;;;;;;;;;;5064593;28;20025;-39
2023/08/10 00:15:27;;;;;;;29.92;6.10;;;;;;;;;;5067293;28;20035;-38
2023/08/10 00:17:54;;;;;;;28.65;6.70;;;;;;;;;;5072887;28;20033;-38
2023/08/10 00:20:21;;;;;;;21.33;6.05;;;;;;;;;;5064502;28;20119;-38
2023/08/10 00:22:48;;;;;;;26.15;6.38;;;;;;;;;;5072847;28;20573;-38
2023/08/10 00:25:16;;;;;;;25.95;6.93;;;;;;;;;;5066862;28;20270;-39
2023/08/10 00:27:43;;;;;;;29.40;6.80;;;;;;;;;;5069049;28;20041;-39
2023/08/10 00:30:10;;;;;;;30.90;6.80;;;;;;;;;;5061197;28;20060;-38
2023/08/10 00:32:37;;;;;;;31.17;6.68;;;;;;;;;;5072309;28;20032;-39
2023/08/10 00:35:04;;;;;;;24.90;6.05;;;;;;;;;;5062827;28;20055;-39
2023/08/10 00:37:31;;;;;;;35.00;7.22;;;;;;;;;;5072371;28;20105;-38
2023/08/10 00:39:58;;;;;;;35.67;7.85;;;;;;;;;;5071155;28;20024;-38
2023/08/10 00:42:25;;;;;;;35.55;8.35;;;;;;;;;;5070988;28;20501;-38
2023/08/10 00:44:52;;;;;;;31.77;8.40;;;;;;;;;;5068343;28;20028;-38
2023/08/10 00:47:20;;;;;;;34.10;7.90;;;;;;;;;;5072534;28;20778;-39
2023/08/10 00:49:47;;;;;;;41.85;8.48;;;;;;;;;;5071293;28;20051;-38
2023/08/10 00:52:14;;;;;;;39.92;7.50;;;;;;;;;;5072421;28;20024;-39
2023/08/10 00:54:41;;;;;;;42.80;8.77;;;;;;;;;;5065080;28;20166;-39
2023/08/10 00:57:08;;;;;;;35.95;9.20;;;;;;;;;;5066908;28;20040;-38
2023/08/10 00:59:36;;;;;;;40.95;8.80;;;;;;;;;;5065892;28;20387;-39
2023/08/10 01:02:03;;;;;;;43.53;8.52;;;;;;;;;;5067595;28;20390;-38
2023/08/10 01:04:30;;;;;;;43.50;8.45;;;;;;;;;;5066879;28;20032;-39
2023/08/10 01:07:10;;;;;;;43.75;9.77;;;;;;;;;;5067798;28;20031;-39
2023/08/10 01:09:43;;;;;;;31.48;8.40;;;;;;;;;;5064455;28;20706;-39
2023/08/10 01:12:22;;;;;;;38.03;8.10;;;;;;;;;;5070605;28;20031;-39
2023/08/10 01:15:01;;;;;;;32.88;7.97;;;;;;;;;;5068444;28;20467;-38
2023/08/10 01:17:30;;;;;;;37.22;7.97;;;;;;;;;;5071542;28;20032;-39
2023/08/10 01:20:00;;;;;;;32.85;7.75;;;;;;;;;;5060376;28;20482;-38
2023/08/10 01:22:38;;;;;;;33.50;7.70;;;;;;;;;;5071787;28;20032;-39
2023/08/10 01:25:06;;;;;;;34.15;7.28;;;;;;;;;;5053887;28;20040;-39
2023/08/10 01:27:34;;;;;;;33.63;7.40;;;;;;;;;;5046072;28;20097;-38
2023/08/10 01:30:07;;;;;;;43.60;7.43;;;;;;;;;;5051749;28;20056;-39
2023/08/10 01:32:35;;;;;;;30.00;7.43;;;;;;;;;;5060402;28;20033;-38
2023/08/10 01:35:05;;;;;;;29.85;7.50;;;;;;;;;;5061887;28;20032;-39
2023/08/10 01:37:33;;;;;;;28.40;7.03;;;;;;;;;;5060076;28;20041;-39
2023/08/10 01:40:00;;;;;;;30.98;6.80;;;;;;;;;;5070839;28;20534;-40
2023/08/10 01:42:27;;;;;;;41.05;7.18;;;;;;;;;;5069617;28;20054;-39
2023/08/10 01:44:54;;;;;;;27.98;6.95;;;;;;;;;;5070754;28;20490;-39
2023/08/10 01:47:27;;;;;;;25.45;5.90;;;;;;;;;;5070791;28;20474;-40
2023/08/10 01:49:57;;;;;;;23.80;5.68;;;;;;;;;;5071335;28;20540;-39
2023/08/10 01:52:25;;;;;;;26.77;6.30;;;;;;;;;;5071362;28;20039;-40
2023/08/10 01:54:53;;;;;;;29.67;6.00;;;;;;;;;;5071410;28;20089;-39
2023/08/10 01:57:20;;;;;;;22.80;5.40;;;;;;;;;;5071290;28;20497;-44
2023/08/10 01:59:47;;;;;;;26.77;6.00;;;;;;;;;;5070434;28;20089;-39
2023/08/10 02:02:14;;;;;;;26.73;5.85;;;;;;;;;;5071136;28;20036;-40
2023/08/10 02:04:42;;;;;;;23.13;5.82;;;;;;;;;;5063244;28;20105;-39
2023/08/10 02:07:09;;;;;;;33.33;6.00;;;;;;;;;;5071276;28;20050;-39
2023/08/10 02:09:37;;;;;;;23.88;5.30;;;;;;;;;;5070932;28;20047;-40
2023/08/10 02:12:04;;;;;;;20.40;4.80;;;;;;;;;;5071072;28;20037;-39
2023/08/10 02:14:31;;;;;;;23.25;5.50;;;;;;;;;;5071067;28;20040;-39
2023/08/10 02:16:58;;;;;;;21.55;5.07;;;;;;;;;;5070195;28;20051;-39
2023/08/10 02:19:25;;;;;;;24.48;4.60;;;;;;;;;;5070936;28;20035;-39
2023/08/10 02:21:52;;;;;;;16.65;4.82;;;;;;;;;;5070658;28;20397;-39
2023/08/10 02:24:20;;;;;;;21.17;5.18;;;;;;;;;;5070604;28;20029;-39
2023/08/10 02:26:47;;;;;;;21.95;5.22;;;;;;;;;;5069417;28;20075;-39
2023/08/10 02:29:14;;;;;;;19.10;4.50;;;;;;;;;;5070756;28;20047;-39
2023/08/10 02:31:41;;;;;;;25.05;5.28;;;;;;;;;;5069385;28;20036;-38
2023/08/10 02:34:08;;;;;;;17.45;4.68;;;;;;;;;;5070890;28;20044;-38
2023/08/10 02:36:35;;;;;;;23.33;5.00;;;;;;;;;;5070962;28;20123;-39
2023/08/10 02:39:05;;;;;;;17.33;4.75;;;;;;;;;;5070833;28;20021;-39
2023/08/10 02:41:32;;;;;;;14.85;4.65;;;;;;;;;;5070814;28;20473;-39
2023/08/10 02:43:59;;;;;;;23.88;4.63;;;;;;;;;;5070520;28;20056;-39
2023/08/10 02:46:26;;;;;;;22.00;4.20;;;;;;;;;;5061762;28;20037;-39
2023/08/10 02:48:54;;;;;;;21.80;4.82;;;;;;;;;;5067259;28;20107;-39
2023/08/10 02:51:21;;;;;;;18.13;4.47;;;;;;;;;;5070367;28;20032;-38
2023/08/10 02:53:48;;;;;;;19.17;4.75;;;;;;;;;;5060363;28;20033;-38
2023/08/10 02:56:15;;;;;;;18.60;4.90;;;;;;;;;;5060094;28;20486;-39
2023/08/10 02:58:43;;;;;;;12.18;4.18;;;;;;;;;;5061258;28;20103;-38
2023/08/10 03:01:10;;;;;;;17.35;4.68;;;;;;;;;;5059766;28;20027;-38
2023/08/10 03:03:38;;;;;;;12.60;3.63;;;;;;;;;;5059689;28;20471;-39
2023/08/10 03:06:05;;;;;;;14.02;3.88;;;;;;;;;;5053441;28;20779;-38
2023/08/10 03:08:32;;;;;;;18.05;4.72;;;;;;;;;;5058181;28;20029;-38
2023/08/10 03:10:59;;;;;;;13.95;3.72;;;;;;;;;;5054055;28;20098;-38
2023/08/10 03:13:26;;;;;;;19.45;3.70;;;;;;;;;;5058724;28;20048;-38
2023/08/10 03:15:55;;;;;;;13.52;3.70;;;;;;;;;;5051024;28;20021;-38
2023/08/10 03:18:22;;;;;;;12.40;3.72;;;;;;;;;;5054028;28;20056;-38
2023/08/10 03:20:49;;;;;;;13.00;4.25;;;;;;;;;;5053918;28;20033;-38
2023/08/10 03:23:16;;;;;;;10.95;3.33;;;;;;;;;;5053960;28;20024;-38
2023/08/10 03:25:43;;;;;;;13.68;3.83;;;;;;;;;;5054289;28;20087;-38
2023/08/10 03:28:10;;;;;;;11.07;3.28;;;;;;;;;;5054401;28;20055;-38
2023/08/10 03:30:37;;;;;;;11.55;3.38;;;;;;;;;;5054139;28;20041;-38
2023/08/10 03:33:04;;;;;;;13.30;3.58;;;;;;;;;;5054237;28;20029;-38
2023/08/10 03:35:31;;;;;;;14.30;3.53;;;;;;;;;;5054300;28;20032;-38
2023/08/10 03:37:58;;;;;;;16.35;3.22;;;;;;;;;;5054282;28;20028;-38
2023/08/10 03:40:25;;;;;;;9.90;3.00;;;;;;;;;;5054297;28;20029;-38
2023/08/10 03:42:52;;;;;;;12.18;3.47;;;;;;;;;;5054086;28;20040;-38
2023/08/10 03:45:19;;;;;;;10.95;3.47;;;;;;;;;;5054018;28;20021;-38
2023/08/10 03:47:46;;;;;;;11.02;3.00;;;;;;;;;;5054103;28;20049;-38
2023/08/10 03:50:13;;;;;;;11.52;3.28;;;;;;;;;;5053933;28;20044;-38
2023/08/10 03:52:40;;;;;;;11.68;3.03;;;;;;;;;;5053915;28;20139;-38
2023/08/10 03:55:07;;;;;;;13.77;3.28;;;;;;;;;;5053917;28;20096;-38
2023/08/10 03:57:34;;;;;;;11.85;2.80;;;;;;;;;;5053921;28;20052;-39
2023/08/10 04:00:01;;;;;;;11.88;2.83;;;;;;;;;;5053879;28;20461;-38
2023/08/10 04:02:28;;;;;;;10.57;3.05;;;;;;;;;;5053718;28;20056;-38
2023/08/10 04:04:55;;;;;;;11.43;3.17;;;;;;;;;;5052423;28;20441;-38
2023/08/10 04:07:22;;;;;;;11.98;2.95;;;;;;;;;;5053738;28;20029;-38
2023/08/10 04:09:49;;;;;;;11.10;3.15;;;;;;;;;;5053569;28;20037;-38
2023/08/10 04:12:17;;;;;;;11.80;3.10;;;;;;;;;;5053515;28;20505;-39
2023/08/10 04:14:45;;;;;;;11.07;3.00;;;;;;;;;;5053628;28;20105;-38
2023/08/10 04:17:11;;;;;;;11.98;2.97;;;;;;;;;;5053218;28;20053;-38
2023/08/10 04:19:38;;;;;;;9.98;3.00;;;;;;;;;;5052499;28;20055;-38
2023/08/10 04:22:06;;;;;;;13.90;2.67;;;;;;;;;;5053420;28;20028;-38
2023/08/10 04:24:33;;;;;;;6.63;2.58;;;;;;;;;;5053412;28;20044;-39
2023/08/10 04:27:00;;;;;;;8.15;2.90;;;;;;;;;;5053400;28;20043;-38
2023/08/10 04:29:27;;;;;;;6.68;2.47;;;;;;;;;;5053175;28;20041;-38
2023/08/10 04:31:54;;;;;;;8.63;2.90;;;;;;;;;;5053172;28;20108;-38
2023/08/10 04:34:21;;;;;;;9.15;2.60;;;;;;;;;;5053318;28;20099;-38
2023/08/10 04:36:49;;;;;;;9.77;2.83;;;;;;;;;;5053203;28;20033;-38
2023/08/10 04:39:16;;;;;;;8.20;2.67;;;;;;;;;;5053139;28;20569;-38
2023/08/10 04:41:43;;;;;;;9.13;2.80;;;;;;;;;;5052869;28;20033;-38
2023/08/10 04:44:10;;;;;;;10.10;2.88;;;;;;;;;;5053323;28;20177;-38
2023/08/10 04:46:40;;;;;;;11.38;3.20;;;;;;;;;;5052760;28;20032;-38
2023/08/10 04:49:07;;;;;;;11.65;3.03;;;;;;;;;;5052803;28;20505;-39
2023/08/10 04:51:34;;;;;;;10.40;2.72;;;;;;;;;;5052713;28;20129;-40
2023/08/10 04:54:01;;;;;;;9.35;2.80;;;;;;;;;;5052855;28;20028;-38
2023/08/10 04:56:28;;;;;;;8.77;2.80;;;;;;;;;;5052818;28;20028;-38
2023/08/10 04:58:55;;;;;;;7.63;2.40;;;;;;;;;;5052789;28;20154;-38
2023/08/10 05:01:23;;;;;;;11.88;2.78;;;;;;;;;;5052534;28;20067;-38
2023/08/10 05:03:50;;;;;;;7.68;2.40;;;;;;;;;;5052530;28;20554;-38
2023/08/10 05:06:17;;;;;;;8.23;2.70;;;;;;;;;;5052614;28;20044;-38
2023/08/10 05:08:44;;;;;;;5.50;2.22;;;;;;;;;;5052602;28;20036;-38
2023/08/10 05:11:11;;;;;;;10.00;2.70;;;;;;;;;;5052395;28;20095;-38
2023/08/10 05:13:38;;;;;;;9.50;2.80;;;;;;;;;;5052423;28;20063;-38
2023/08/10 05:16:05;;;;;;;8.10;2.33;;;;;;;;;;5052341;28;20052;-38
2023/08/10 05:18:32;;;;;;;6.13;2.65;;;;;;;;;;5052429;28;20486;-38
2023/08/10 05:21:02;;;;;;;12.65;2.92;;;;;;;;;;5052245;28;20083;-38
2023/08/10 05:23:29;;;;;;;6.82;2.50;;;;;;;;;;5052242;28;20103;-38
2023/08/10 05:25:56;;;;;;;7.53;2.55;;;;;;;;;;5052080;28;20167;-38
2023/08/10 05:28:23;;;;;;;10.40;2.63;;;;;;;;;;5052068;28;20391;-38
2023/08/10 05:30:50;;;;;;;8.02;2.50;;;;;;;;;;5051595;28;20033;-38
2023/08/10 05:33:17;;;;;;;7.75;2.65;;;;;;;;;;5052033;28;20028;-38
2023/08/10 05:35:46;;;;;;;15.35;2.70;;;;;;;;;;5052067;28;20036;-38
2023/08/10 05:38:13;;;;;;;7.10;2.58;;;;;;;;;;5051958;28;20037;-38
2023/08/10 05:40:40;;;;;;;8.50;2.50;;;;;;;;;;5051888;28;20486;-38
2023/08/10 05:43:08;;;;;;;9.27;2.53;;;;;;;;;;5051959;28;20021;-38
2023/08/10 05:45:35;;;;;;;6.22;2.38;;;;;;;;;;5051970;28;20029;-38
2023/08/10 05:48:02;;;;;;;7.80;2.40;;;;;;;;;;5051872;28;20037;-38
2023/08/10 05:50:29;;;;;;;7.70;2.25;;;;;;;;;;5051717;28;20402;-39
2023/08/10 05:52:55;;;;;;;8.13;2.35;;;;;;;;;;5051835;28;20029;-38
2023/08/10 05:55:22;;;;;;;5.07;2.08;;;;;;;;;;5051730;28;20052;-38
2023/08/10 05:57:50;;;;;;;5.38;2.20;;;;;;;;;;5051731;28;20031;-38
2023/08/10 06:00:17;;;;;;;6.65;2.28;;;;;;;;;;5051881;28;20400;-38
2023/08/10 06:02:45;;;;;;;7.68;2.20;;;;;;;;;;5050224;28;20036;-38
2023/08/10 06:05:15;;;;;;;7.80;2.15;;;;;;;;;;5051646;28;20039;-38
2023/08/10 06:07:42;;;;;;;5.72;2.08;;;;;;;;;;5051607;28;20487;-38
2023/08/10 06:10:09;;;;;;;5.25;1.90;;;;;;;;;;5051552;28;20038;-38
2023/08/10 06:12:36;;;;;;;4.88;1.98;;;;;;;;;;5051502;28;20049;-38
2023/08/10 06:15:03;;;;;;;7.68;2.15;;;;;;;;;;5051500;28;20033;-38
2023/08/10 06:17:31;;;;;;;6.70;2.40;;;;;;;;;;5051558;28;20501;-38
2023/08/10 06:19:58;;;;;;;5.22;2.08;;;;;;;;;;5051434;28;20044;-38
2023/08/10 06:22:25;;;;;;;6.72;2.30;;;;;;;;;;5051359;28;20017;-38
2023/08/10 06:24:52;;;;;;;5.25;2.08;;;;;;;;;;5051316;28;20119;-39
2023/08/10 06:27:19;;;;;;;8.32;2.22;;;;;;;;;;5051420;28;20029;-38
2023/08/10 06:29:46;;;;;;;6.47;2.42;;;;;;;;;;5051345;28;20567;-38
2023/08/10 06:32:13;;;;;;;5.82;2.00;;;;;;;;;;5051141;28;20490;-38
2023/08/10 06:34:40;;;;;;;4.35;1.90;;;;;;;;;;5051357;28;20029;-39
2023/08/10 06:37:07;;;;;;;5.65;1.88;;;;;;;;;;5051376;28;20090;-38
2023/08/10 06:39:34;;;;;;;6.22;2.10;;;;;;;;;;5051346;28;20479;-38
2023/08/10 06:42:02;;;;;;;6.40;2.20;;;;;;;;;;5052987;28;20502;-38
2023/08/10 06:44:29;;;;;;;5.38;2.05;;;;;;;;;;5055280;28;20031;-38
2023/08/10 06:46:56;;;;;;;8.02;2.30;;;;;;;;;;5055227;28;20036;-38
2023/08/10 06:49:23;;;;;;;5.22;1.80;;;;;;;;;;5055146;28;20621;-38
2023/08/10 06:51:53;;;;;;;6.82;2.22;;;;;;;;;;5055096;28;20112;-38
2023/08/10 06:54:20;;;;;;;4.93;2.25;;;;;;;;;;5055144;28;20033;-38
2023/08/10 06:56:47;;;;;;;7.03;2.10;;;;;;;;;;5055069;28;20036;-38
2023/08/10 06:59:14;;;;;;;6.15;1.92;;;;;;;;;;5055017;28;20028;-39
2023/08/10 07:01:41;;;;;;;6.07;2.05;;;;;;;;;;5054985;28;20049;-38
2023/08/10 07:04:08;;;;;;;7.13;2.20;;;;;;;;;;5054924;28;20094;-38
2023/08/10 07:06:35;;;;;;;4.13;2.08;;;;;;;;;;5054888;28;20045;-38
2023/08/10 07:09:03;;;;;;;4.93;2.00;;;;;;;;;;5054781;28;20059;-38
2023/08/10 07:11:31;;;;;;;5.50;2.15;;;;;;;;;;5054687;28;20032;-38
2023/08/10 07:13:58;;;;;;;6.15;2.17;;;;;;;;;;5054791;28;20056;-38
2023/08/10 07:16:25;;;;;;;5.82;1.73;;;;;;;;;;5054761;28;20041;-39
2023/08/10 07:18:52;;;;;;;5.22;2.10;;;;;;;;;;5054684;28;20539;-38
2023/08/10 07:21:20;;;;;;;5.55;1.92;;;;;;;;;;5054549;28;20483;-38
2023/08/10 07:23:48;;;;;;;3.67;1.85;;;;;;;;;;5054515;28;20036;-38
2023/08/10 07:26:15;;;;;;;4.18;1.77;;;;;;;;;;5054351;28;20049;-38
2023/08/10 07:28:42;;;;;;;5.93;2.10;;;;;;;;;;5054528;28;20037;-38
2023/08/10 07:31:09;;;;;;;3.22;1.65;;;;;;;;;;5054325;28;20045;-38
2023/08/10 07:33:37;;;;;;;5.82;2.17;;;;;;;;;;5054339;28;20107;-38
2023/08/10 07:36:04;;;;;;;5.57;1.80;;;;;;;;;;5054293;28;20033;-38
2023/08/10 07:38:31;;;;;;;5.35;2.00;;;;;;;;;;5054291;28;20044;-39
2023/08/10 07:40:58;;;;;;;3.83;1.60;;;;;;;;;;5054165;28;20103;-38
2023/08/10 07:43:25;;;;;;;4.20;1.95;;;;;;;;;;5054286;28;20021;-38
2023/08/10 07:45:53;;;;;;;3.95;1.85;;;;;;;;;;5054175;28;20028;-38
2023/08/10 07:48:20;;;;;;;5.82;1.80;;;;;;;;;;5054098;28;20033;-38
2023/08/10 07:50:47;;;;;;;5.93;1.90;;;;;;;;;;5053905;28;20475;-38
2023/08/10 07:53:13;;;;;;;5.47;2.08;;;;;;;;;;5053749;28;20021;-38
2023/08/10 07:55:40;;;;;;;4.82;1.83;;;;;;;;;;5054030;28;20098;-38
2023/08/10 07:58:07;;;;;;;4.90;2.28;;;;;;;;;;5053933;28;20492;-38
2023/08/10 08:00:38;;;;;;;4.55;2.10;;;;;;;;;;5053853;28;20036;-38
2023/08/10 08:03:05;;;;;;;4.78;1.98;;;;;;;;;;5053860;28;20120;-38
2023/08/10 08:05:37;;;;;;;7.63;2.45;;;;;;;;;;5052604;28;20051;-38
2023/08/10 08:08:06;;;;;;;6.83;2.40;;;;;;;;;;5053862;28;20128;-38
2023/08/10 08:10:33;;;;;;;5.72;1.95;;;;;;;;;;5053496;28;20124;-38
2023/08/10 08:13:02;;;;;;;5.32;2.03;;;;;;;;;;5053657;28;20025;-38
2023/08/10 08:15:34;;;;;;;3.65;1.73;;;;;;;;;;5053546;28;20029;-38
2023/08/10 08:18:20;;;;;;;5.93;1.90;;;;;;;;;;5053613;28;20029;-38
2023/08/10 08:20:47;;;;;;;4.80;1.70;;;;;;;;;;5053457;28;20040;-38
2023/08/10 08:23:14;;;;;;;7.60;2.25;;;;;;;;;;5053500;28;20493;-38
2023/08/10 08:25:41;;;;;;;5.63;1.92;;;;;;;;;;5053202;28;20411;-38
2023/08/10 08:28:07;;;;;;;4.47;1.80;;;;;;;;;;5053354;28;20048;-38
2023/08/10 08:30:34;;;;;;;4.38;1.90;;;;;;;;;;5053250;28;20040;-38
2023/08/10 08:33:01;;;;;;;4.63;1.98;;;;;;;;;;5053266;28;20033;-38
2023/08/10 08:35:29;;;;;;;7.13;2.08;;;;;;;;;;5053245;28;20017;-38
2023/08/10 08:37:56;;;;;;;6.57;2.40;;;;;;;;;;5053128;28;20458;-38
2023/08/10 08:40:23;;;;;;;5.18;2.05;;;;;;;;;;5051834;28;20536;-38
2023/08/10 08:42:50;;;;;;;6.70;2.03;;;;;;;;;;5053047;28;20024;-38
2023/08/10 08:45:18;;;;;;;4.63;1.85;;;;;;;;;;5053094;28;20083;-38
2023/08/10 08:47:45;;;;;;;4.93;1.90;;;;;;;;;;5053036;28;20497;-39
2023/08/10 08:50:12;;;;;;;5.20;1.90;;;;;;;;;;5052755;28;20128;-38
2023/08/10 08:52:40;;;;;;;4.50;2.05;;;;;;;;;;5052919;28;20028;-38
2023/08/10 08:55:08;;;;;;;4.80;2.10;;;;;;;;;;5052841;28;20021;-38
2023/08/10 08:57:35;;;;;;;5.15;1.95;;;;;;;;;;5052823;28;20372;-38
2023/08/10 09:00:02;;;;;;;7.65;2.20;;;;;;;;;;5052718;28;20025;-39
2023/08/10 09:02:30;;;;;;;7.30;2.15;;;;;;;;;;5052713;28;20037;-38
2023/08/10 09:04:59;;;;;;;7.80;2.20;;;;;;;;;;5051584;28;20067;-38
2023/08/10 09:07:30;;;;;;;6.35;2.03;;;;;;;;;;5052548;28;20446;-38
2023/08/10 09:09:57;;;;;;;5.63;1.95;;;;;;;;;;5052532;28;20037;-38
2023/08/10 09:12:37;;;;;;;6.35;1.70;;;;;;;;;;5052132;28;20037;-38
2023/08/10 09:15:05;;;;;;;5.47;1.90;;;;;;;;;;5052274;28;20065;-38
2023/08/10 09:17:33;;;;;;;4.97;1.73;;;;;;;;;;5051662;28;20391;-38
2023/08/10 09:20:01;;;;;;;4.03;1.70;;;;;;;;;;5051714;28;20017;-39
2023/08/10 09:22:28;;;;;;;5.88;2.08;;;;;;;;;;5051939;28;20047;-38
2023/08/10 09:24:55;;;;;;;4.68;1.50;;;;;;;;;;5052114;28;20571;-38
2023/08/10 09:27:24;;;;;;;4.07;1.80;;;;;;;;;;5049658;28;20119;-38
2023/08/10 09:29:54;;;;;;;4.93;1.90;;;;;;;;;;5051473;28;20051;-38
2023/08/10 09:32:22;;;;;;;5.82;2.10;;;;;;;;;;5049582;28;20033;-38
2023/08/10 09:34:49;;;;;;;4.55;1.77;;;;;;;;;;5051730;28;20029;-38
2023/08/10 09:37:16;;;;;;;4.53;1.55;;;;;;;;;;5051253;28;20029;-38
2023/08/10 09:39:43;;;;;;;5.47;1.90;;;;;;;;;;5051246;28;20032;-39
2023/08/10 09:42:10;;;;;;;3.67;1.75;;;;;;;;;;5050999;28;20033;-38
2023/08/10 09:44:47;;;;;;;5.35;1.50;;;;;;;;;;5051752;28;20391;-38
2023/08/10 09:47:15;;;;;;;5.47;1.85;;;;;;;;;;5051780;28;20025;-38
2023/08/10 09:50:04;;;;;;;4.13;1.60;;;;;;;;;;5051730;28;20056;-38
2023/08/10 09:52:31;;;;;;;5.93;1.75;;;;;;;;;;5051903;28;20087;-38
2023/08/10 09:54:58;;;;;;;9.43;1.85;;;;;;;;;;5051762;28;20032;-38
2023/08/10 09:57:26;;;;;;;6.47;1.88;;;;;;;;;;5051892;28;20025;-38
2023/08/10 09:59:53;;;;;;;7.47;2.15;;;;;;;;;;5051736;28;20372;-38
2023/08/10 10:02:21;;;;;;;6.25;2.10;;;;;;;;;;5051591;28;20103;-38
2023/08/10 10:04:48;;;;;;;6.25;1.98;;;;;;;;;;5050939;28;20082;-38
2023/08/10 10:07:16;;;;;;;7.05;2.10;;;;;;;;;;5046459;28;20024;-39
2023/08/10 10:09:45;;;;;;;7.93;1.92;;;;;;;;;;5045388;28;20037;-42
2023/08/10 10:12:13;;;;;;;9.38;1.80;;;;;;;;;;5047388;28;20074;-42
2023/08/10 10:14:41;;;;;;;10.80;2.30;;;;;;;;;;5047459;28;20470;-39
2023/08/10 10:17:10;;;;;;;7.63;2.03;;;;;;;;;;5049960;28;20025;-38
2023/08/10 10:19:37;;;;;;;7.05;1.90;;;;;;;;;;5046916;28;20033;-38
2023/08/10 10:22:04;;;;;;;7.32;2.00;;;;;;;;;;5049544;28;20056;-38
2023/08/10 10:24:32;;;;;;;5.82;2.05;;;;;;;;;;5049712;28;20479;-39
2023/08/10 10:27:09;;;;;;;7.90;2.08;;;;;;;;;;5049759;28;20044;-38
2023/08/10 10:29:36;;;;;;;4.85;1.83;;;;;;;;;;5046044;28;20040;-41
2023/08/10 10:32:09;;;;;;;6.10;2.08;;;;;;;;;;5046233;28;20068;-39
2023/08/10 10:34:37;;;;;;;3.95;1.65;;;;;;;;;;5043571;28;20041;-39
2023/08/10 10:37:26;;;;;;;8.75;2.20;;;;;;;;;;5049169;28;20036;-40
2023/08/10 10:39:53;;;;;;;5.13;2.20;;;;;;;;;;5048554;28;20041;-38
2023/08/10 10:42:21;;;;;;;5.10;2.03;;;;;;;;;;5048327;28;20108;-39
2023/08/10 10:45:14;;;;;;;7.05;1.85;;;;;;;;;;5049852;28;20522;-41
2023/08/10 10:47:42;;;;;;;11.40;2.25;;;;;;;;;;5049572;28;20399;-40
2023/08/10 10:50:16;;;;;;;6.20;2.10;;;;;;;;;;5048339;28;20485;-39
2023/08/10 10:52:55;;;;;;;6.65;2.15;;;;;;;;;;5048242;28;20025;-39
2023/08/10 10:55:26;;;;;;;6.03;2.25;;;;;;;;;;5049618;28;20107;-38
2023/08/10 10:57:53;;;;;;;7.75;2.00;;;;;;;;;;5048754;28;20117;-39
2023/08/10 11:00:21;;;;;;;7.07;1.92;;;;;;;;;;5047442;28;20036;-38
2023/08/10 11:02:48;;;;;;;8.93;1.92;;;;;;;;;;5046703;28;20056;-39
2023/08/10 11:05:16;;;;;;;9.40;2.05;;;;;;;;;;5049419;28;20075;-41
2023/08/10 11:07:50;;;;;;;6.93;2.33;;;;;;;;;;5049824;28;20037;-40
2023/08/10 11:10:24;;;;;;;13.00;2.22;;;;;;;;;;5050465;28;20044;-41
2023/08/10 11:12:52;;;;;;;13.80;2.50;;;;;;;;;;5050756;28;20040;-40
2023/08/10 11:15:19;;;;;;;9.20;2.28;;;;;;;;;;5050863;28;20108;-41
2023/08/10 11:17:49;;;;;;;7.47;2.10;;;;;;;;;;5050754;28;20064;-43
2023/08/10 11:20:18;;;;;;;7.90;2.42;;;;;;;;;;5050680;28;20507;-42
2023/08/10 11:22:54;;;;;;;8.43;2.45;;;;;;;;;;5050671;28;20115;-42
2023/08/10 11:25:24;;;;;;;5.88;2.03;;;;;;;;;;5050265;28;20087;-40
2023/08/10 11:27:53;;;;;;;7.57;2.40;;;;;;;;;;5052153;28;20491;-41
2023/08/10 11:30:21;;;;;;;9.60;2.15;;;;;;;;;;5054064;28;20095;-40
2023/08/10 11:32:51;;;;;;;9.68;2.10;;;;;;;;;;5054078;28;20104;-41
2023/08/10 11:35:19;;;;;;;6.60;1.90;;;;;;;;;;5054251;28;20078;-40
2023/08/10 11:37:47;;;;;;;9.65;2.42;;;;;;;;;;5054225;28;20033;-40
2023/08/10 11:40:18;;;;;;;8.48;2.40;;;;;;;;;;5054028;28;20025;-40
2023/08/10 11:42:47;;;;;;;5.97;1.92;;;;;;;;;;5054024;28;20063;-40
2023/08/10 11:45:20;;;;;;;7.85;2.20;;;;;;;;;;5053923;28;20108;-40
2023/08/10 11:47:53;;;;;;;7.25;2.08;;;;;;;;;;5053799;28;20120;-41
2023/08/10 11:50:21;;;;;;;9.48;1.98;;;;;;;;;;5053793;28;20045;-41
2023/08/10 11:52:49;;;;;;;8.27;1.83;;;;;;;;;;5053821;28;20387;-40
2023/08/10 11:55:17;;;;;;;10.23;2.20;;;;;;;;;;5053783;28;20060;-41
2023/08/10 11:57:45;;;;;;;11.02;2.15;;;;;;;;;;5053941;28;20078;-40
2023/08/10 12:00:22;;;;;;;7.55;2.13;;;;;;;;;;5053475;28;20380;-39
2023/08/10 12:03:02;;;;;;;5.63;1.77;;;;;;;;;;5053738;28;20037;-42
2023/08/10 12:05:52;;;;;;;10.90;2.40;;;;;;;;;;5053712;28;20487;-40
2023/08/10 12:08:20;;;;;;;6.40;2.05;;;;;;;;;;5053691;28;20029;-40
2023/08/10 12:10:50;;;;;;;7.57;2.20;;;;;;;;;;5053195;28;20124;-41
2023/08/10 12:13:18;;;;;;;5.43;2.03;;;;;;;;;;5053560;28;20463;-40
2023/08/10 12:15:48;;;;;;;7.63;2.00;;;;;;;;;;5053225;28;20029;-41
2023/08/10 12:18:16;;;;;;;5.55;2.10;;;;;;;;;;5053363;28;20031;-41
2023/08/10 12:20:44;;;;;;;6.57;2.35;;;;;;;;;;5053325;28;20086;-42
2023/08/10 12:23:12;;;;;;;10.93;2.20;;;;;;;;;;5053307;28;20035;-46
2023/08/10 12:25:39;;;;;;;11.35;2.58;;;;;;;;;;5053233;28;20049;-42
2023/08/10 12:28:07;;;;;;;11.80;2.55;;;;;;;;;;5051698;28;20045;-43
2023/08/10 12:30:34;;;;;;;13.35;2.20;;;;;;;;;;5052743;28;20486;-41
2023/08/10 12:33:02;;;;;;;9.75;2.72;;;;;;;;;;5052684;28;20037;-40
2023/08/10 12:35:29;;;;;;;12.43;2.42;;;;;;;;;;5052410;28;20021;-39
2023/08/10 12:37:56;;;;;;;7.45;2.35;;;;;;;;;;5052562;28;20033;-42
2023/08/10 12:40:23;;;;;;;11.30;2.70;;;;;;;;;;5051305;28;20119;-39
2023/08/10 12:42:51;;;;;;;8.07;2.83;;;;;;;;;;5052476;28;20556;-38
2023/08/10 12:45:18;;;;;;;14.63;2.63;;;;;;;;;;5052464;28;20029;-39
2023/08/10 12:47:46;;;;;;;7.25;2.17;;;;;;;;;;5052479;28;20040;-39
2023/08/10 12:50:14;;;;;;;6.13;2.20;;;;;;;;;;5052030;28;20033;-39
2023/08/10 12:52:41;;;;;;;6.88;2.25;;;;;;;;;;5051974;28;20032;-39
2023/08/10 12:55:08;;;;;;;8.80;2.42;;;;;;;;;;5052807;28;20113;-40
2023/08/10 12:57:36;;;;;;;7.15;2.08;;;;;;;;;;5052813;28;20028;-39
2023/08/10 13:00:14;;;;;;;10.35;2.53;;;;;;;;;;5052465;28;20103;-39
2023/08/10 13:02:45;;;;;;;13.25;2.72;;;;;;;;;;5052617;28;20032;-42
2023/08/10 13:05:12;;;;;;;12.30;2.55;;;;;;;;;;5052513;28;20075;-39
2023/08/10 13:07:40;;;;;;;8.43;2.72;;;;;;;;;;5052614;28;20044;-40
2023/08/10 13:10:07;;;;;;;7.95;2.20;;;;;;;;;;5052361;28;20047;-39
2023/08/10 13:12:35;;;;;;;4.90;2.05;;;;;;;;;;5052594;28;20059;-40
2023/08/10 13:15:02;;;;;;;11.82;2.50;;;;;;;;;;5052457;28;20052;-40
2023/08/10 13:17:30;;;;;;;17.05;2.70;;;;;;;;;;5052313;28;20028;-40
2023/08/10 13:20:02;;;;;;;7.82;2.13;;;;;;;;;;5052280;28;20133;-38
2023/08/10 13:22:30;;;;;;;10.95;2.58;;;;;;;;;;5052233;28;20036;-40
2023/08/10 13:24:57;;;;;;;9.40;2.13;;;;;;;;;;5051923;28;20143;-39
2023/08/10 13:27:24;;;;;;;6.70;2.10;;;;;;;;;;5052157;28;20111;-40
2023/08/10 13:29:52;;;;;;;6.55;2.20;;;;;;;;;;5052023;28;20029;-38
2023/08/10 13:32:19;;;;;;;8.43;2.50;;;;;;;;;;5052128;28;20025;-39
2023/08/10 13:34:47;;;;;;;9.13;3.22;;;;;;;;;;5052167;28;20108;-41
2023/08/10 13:37:14;;;;;;;7.22;2.20;;;;;;;;;;5051988;28;20024;-41
2023/08/10 13:39:41;;;;;;;7.55;2.42;;;;;;;;;;5051961;28;20112;-39
2023/08/10 13:42:08;;;;;;;7.38;2.20;;;;;;;;;;5052134;28;20032;-40
2023/08/10 13:44:35;;;;;;;8.52;2.20;;;;;;;;;;5051851;28;20036;-39
2023/08/10 13:47:02;;;;;;;10.50;2.55;;;;;;;;;;5051926;28;20021;-39
2023/08/10 13:49:29;;;;;;;9.45;2.28;;;;;;;;;;5051799;28;20028;-40
2023/08/10 13:51:56;;;;;;;6.90;2.45;;;;;;;;;;5051421;28;20029;-40
2023/08/10 13:54:23;;;;;;;7.72;2.30;;;;;;;;;;5051979;28;20066;-40
2023/08/10 13:57:11;;;;;;;7.63;2.42;;;;;;;;;;5051876;28;20032;-40
2023/08/10 13:59:38;;;;;;;4.85;2.05;;;;;;;;;;5051645;28;20086;-41
2023/08/10 14:02:05;;;;;;;8.63;2.35;;;;;;;;;;5051855;28;20021;-40
2023/08/10 14:04:32;;;;;;;10.02;2.13;;;;;;;;;;5051825;28;20017;-41
2023/08/10 14:06:59;;;;;;;6.22;2.10;;;;;;;;;;5051796;28;20048;-43
2023/08/10 14:09:26;;;;;;;8.23;2.03;;;;;;;;;;5051697;28;20025;-40
2023/08/10 14:11:53;;;;;;;9.80;2.25;;;;;;;;;;5051619;28;20056;-42
2023/08/10 14:14:21;;;;;;;8.00;2.25;;;;;;;;;;5051593;28;20032;-40
2023/08/10 14:16:48;;;;;;;5.28;1.98;;;;;;;;;;5051656;28;20029;-40
2023/08/10 14:19:18;;;;;;;8.95;2.22;;;;;;;;;;5051644;28;20091;-39
2023/08/10 14:21:45;;;;;;;4.22;1.45;;;;;;;;;;5051515;28;20107;-38
2023/08/10 14:24:12;;;;;;;7.32;2.10;;;;;;;;;;5051587;28;20422;-40
2023/08/10 14:26:39;;;;;;;4.72;1.90;;;;;;;;;;5051318;28;20072;-39
2023/08/10 14:29:06;;;;;;;6.38;2.38;;;;;;;;;;5051589;28;20082;-41
2023/08/10 14:31:33;;;;;;;5.72;2.10;;;;;;;;;;5051310;28;20039;-38
2023/08/10 14:34:00;;;;;;;4.93;2.00;;;;;;;;;;5051476;28;20394;-41
2023/08/10 14:36:28;;;;;;;10.23;4.13;;;;;;;;;;5051394;28;20111;-42
2023/08/10 14:38:55;;;;;;;7.20;3.72;;;;;;;;;;5051444;28;20032;-42
2023/08/10 14:41:22;;;;;;;9.73;2.80;;;;;;;;;;5051315;28;20494;-39
2023/08/10 14:43:49;;;;;;;8.05;2.20;;;;;;;;;;5051389;28;20021;-39